Time;durP1;ratioP1;P1;durP2;ratioP2;P2;SDS_P1;SDS_P2;PMS_P1;PMS_P2;Temp;Humidity;BMP_temperature;BMP_pressure;BME280_temperature;BME280_humidity;BME280_pressure;Samples;Min_cycle;Max_cycle;Signal;HPM_P1;HPM_P2
2023/08/30 00:01:58;;;;;;;2.42;1.40;;;19.90;89.80;;;;;;5079400;28;20054;-82
2023/08/30 00:04:24;;;;;;;1.95;1.40;;;19.90;89.70;;;;;;5078825;28;20073;-81
2023/08/30 00:06:49;;;;;;;3.33;1.73;;;19.90;89.80;;;;;;5078914;28;20534;-80
2023/08/30 00:09:16;;;;;;;2.47;1.50;;;19.90;89.80;;;;;;5078772;28;20039;-81
2023/08/30 00:11:41;;;;;;;2.78;1.60;;;19.90;89.90;;;;;;5078517;28;20040;-80
2023/08/30 00:14:07;;;;;;;2.70;1.60;;;19.90;90.00;;;;;;5078398;28;20499;-79
2023/08/30 00:16:33;;;;;;;2.88;1.70;;;19.80;90.00;;;;;;5078364;28;20228;-81
2023/08/30 00:18:59;;;;;;;2.80;1.60;;;19.80;90.00;;;;;;5078218;28;20035;-80
2023/08/30 00:21:27;;;;;;;2.75;1.50;;;19.80;90.00;;;;;;5081640;28;20024;-81
2023/08/30 00:23:52;;;;;;;2.42;1.60;;;19.80;90.00;;;;;;5100189;28;20019;-80
2023/08/30 00:26:18;;;;;;;3.10;1.60;;;19.80;90.00;;;;;;5081913;28;20020;-79
2023/08/30 00:28:43;;;;;;;3.00;1.50;;;19.90;90.00;;;;;;5081551;28;20028;-79
2023/08/30 00:31:09;;;;;;;2.50;1.70;;;19.80;90.00;;;;;;5081475;28;20122;-80
2023/08/30 00:33:34;;;;;;;2.65;1.70;;;19.80;90.00;;;;;;5099870;28;20039;-80
2023/08/30 00:36:00;;;;;;;2.83;1.77;;;19.80;90.00;;;;;;5099606;28;20540;-79
2023/08/30 00:38:32;;;;;;;2.15;1.50;;;19.80;90.00;;;;;;5080500;28;20028;-80
2023/08/30 00:40:58;;;;;;;2.67;1.50;;;19.80;90.00;;;;;;5080829;28;20537;-80
2023/08/30 00:43:23;;;;;;;2.85;1.70;;;19.90;90.10;;;;;;5080365;28;20027;-80
2023/08/30 00:45:49;;;;;;;3.22;1.67;;;19.90;90.00;;;;;;5080337;28;20028;-80
2023/08/30 00:48:16;;;;;;;2.95;1.60;;;19.90;90.00;;;;;;5080156;28;20385;-80
2023/08/30 00:50:42;;;;;;;2.83;1.65;;;19.90;90.00;;;;;;5079847;28;20016;-79
2023/08/30 00:53:08;;;;;;;2.58;1.60;;;19.90;90.00;;;;;;5080224;28;20525;-80
2023/08/30 00:55:35;;;;;;;3.10;1.80;;;19.90;89.80;;;;;;5098164;28;20032;-80
2023/08/30 00:58:02;;;;;;;2.90;1.70;;;19.90;89.80;;;;;;5079776;28;20534;-79
2023/08/30 01:00:31;;;;;;;2.88;1.60;;;19.90;89.80;;;;;;5079702;28;20081;-79
2023/08/30 01:02:57;;;;;;;2.58;1.80;;;19.90;89.80;;;;;;5079860;28;20052;-79
2023/08/30 01:05:24;;;;;;;2.70;1.60;;;19.80;89.80;;;;;;5097611;28;20016;-79
2023/08/30 01:07:53;;;;;;;4.80;2.17;;;19.80;89.80;;;;;;5097819;28;20202;-79
2023/08/30 01:10:26;;;;;;;3.03;1.95;;;19.80;89.90;;;;;;5097342;28;20092;-79
2023/08/30 01:13:00;;;;;;;2.92;1.88;;;19.80;90.00;;;;;;5079184;28;20511;-79
2023/08/30 01:15:26;;;;;;;3.38;2.20;;;19.80;90.00;;;;;;5079059;28;20480;-79
2023/08/30 01:17:54;;;;;;;3.28;1.92;;;19.80;90.00;;;;;;5078366;28;20028;-79
2023/08/30 01:20:23;;;;;;;2.25;1.63;;;19.80;90.00;;;;;;5078459;28;20233;-79
2023/08/30 01:22:55;;;;;;;2.53;1.70;;;19.80;90.00;;;;;;5077781;28;20020;-79
2023/08/30 01:25:58;;;;;;;3.58;2.00;;;19.80;90.00;;;;;;5096368;28;20027;-79
2023/08/30 01:28:26;;;;;;;3.30;2.10;;;19.80;90.00;;;;;;5096850;28;20024;-79
2023/08/30 01:30:54;;;;;;;3.00;1.90;;;19.80;90.10;;;;;;5095613;28;20165;-79
2023/08/30 01:33:21;;;;;;;3.58;2.00;;;19.80;90.10;;;;;;5095804;28;20027;-79
2023/08/30 01:35:47;;;;;;;3.40;1.70;;;19.80;90.00;;;;;;5077578;28;20552;-79
2023/08/30 01:38:14;;;;;;;2.40;1.63;;;19.80;90.00;;;;;;5096039;28;20031;-81
2023/08/30 01:40:42;;;;;;;2.67;1.90;;;19.80;90.10;;;;;;5095962;28;20032;-79
2023/08/30 01:43:09;;;;;;;2.60;1.77;;;19.80;90.00;;;;;;5077516;28;20107;-80
2023/08/30 01:45:42;;;;;;;3.17;1.67;;;19.80;90.00;;;;;;5077355;28;20020;-79
2023/08/30 01:48:15;;;;;;;3.33;1.90;;;19.80;90.00;;;;;;5095460;28;20020;-79
2023/08/30 01:50:42;;;;;;;3.25;1.95;;;19.90;90.00;;;;;;5077235;28;20028;-80
2023/08/30 01:53:10;;;;;;;2.80;1.85;;;19.90;90.00;;;;;;5095520;28;20047;-80
2023/08/30 01:55:36;;;;;;;3.13;2.00;;;19.90;89.80;;;;;;5094995;28;20028;-79
2023/08/30 01:58:02;;;;;;;2.72;1.70;;;19.90;89.80;;;;;;5095115;28;20042;-79
2023/08/30 02:00:28;;;;;;;2.63;1.80;;;19.80;89.90;;;;;;5095002;28;20035;-79
2023/08/30 02:02:54;;;;;;;3.08;2.00;;;19.80;89.90;;;;;;5076881;28;20024;-79
2023/08/30 02:05:19;;;;;;;4.38;2.30;;;19.80;89.90;;;;;;5076462;28;20100;-79
2023/08/30 02:08:05;;;;;;;3.35;2.15;;;19.80;90.00;;;;;;5076688;28;20104;-78
2023/08/30 02:10:35;;;;;;;3.55;2.03;;;19.80;90.00;;;;;;5076611;28;20480;-79
2023/08/30 02:13:04;;;;;;;4.18;2.22;;;19.80;90.00;;;;;;5094952;28;20472;-79
2023/08/30 02:15:32;;;;;;;3.00;2.10;;;19.80;90.00;;;;;;5094581;28;20107;-79
2023/08/30 02:17:59;;;;;;;3.13;2.03;;;19.80;90.10;;;;;;5076236;28;20030;-78
2023/08/30 02:20:25;;;;;;;3.50;2.10;;;19.80;90.10;;;;;;5076395;28;20020;-79
2023/08/30 02:22:50;;;;;;;3.72;2.10;;;19.80;90.10;;;;;;5094423;28;20031;-79
2023/08/30 02:25:16;;;;;;;3.58;2.10;;;19.80;90.10;;;;;;5094202;28;20024;-79
2023/08/30 02:27:41;;;;;;;3.67;2.15;;;19.80;90.10;;;;;;5075953;28;20028;-79
2023/08/30 02:30:07;;;;;;;2.80;1.92;;;19.80;90.10;;;;;;5076033;28;20064;-79
2023/08/30 02:32:33;;;;;;;3.30;2.10;;;19.80;90.10;;;;;;5076178;28;20036;-79
2023/08/30 02:34:59;;;;;;;3.30;1.90;;;19.80;90.10;;;;;;5093738;28;20028;-79
2023/08/30 02:37:24;;;;;;;3.05;2.03;;;19.80;90.10;;;;;;5075799;28;20024;-79
2023/08/30 02:39:50;;;;;;;2.63;1.90;;;19.80;90.10;;;;;;5075638;28;20035;-79
2023/08/30 02:42:16;;;;;;;3.10;1.83;;;19.80;90.30;;;;;;5075374;28;20016;-79
2023/08/30 02:44:41;;;;;;;3.92;2.10;;;19.80;90.00;;;;;;5093738;28;20115;-79
2023/08/30 02:47:07;;;;;;;2.65;1.70;;;19.80;90.00;;;;;;5093657;28;20028;-79
2023/08/30 02:49:33;;;;;;;3.28;2.10;;;19.80;90.00;;;;;;5093795;28;20096;-79
2023/08/30 02:51:58;;;;;;;2.92;1.90;;;19.80;90.00;;;;;;5093646;28;20031;-79
2023/08/30 02:54:24;;;;;;;4.10;2.28;;;19.80;90.00;;;;;;5093335;28;20102;-79
2023/08/30 02:56:50;;;;;;;3.53;2.20;;;19.80;89.90;;;;;;5091935;28;20041;-77
2023/08/30 02:59:15;;;;;;;4.10;2.40;;;19.80;89.90;;;;;;5095986;28;20046;-81
2023/08/30 03:01:41;;;;;;;3.58;2.10;;;19.80;90.00;;;;;;5081453;28;20016;-80
2023/08/30 03:04:07;;;;;;;3.40;2.20;;;19.80;90.00;;;;;;5080936;28;20023;-80
2023/08/30 03:06:33;;;;;;;3.63;2.20;;;19.80;90.00;;;;;;5098753;28;20031;-80
2023/08/30 03:08:59;;;;;;;4.18;2.47;;;19.80;90.10;;;;;;5098291;28;20024;-80
2023/08/30 03:11:24;;;;;;;3.55;2.20;;;19.80;90.10;;;;;;5080573;28;20087;-80
2023/08/30 03:13:50;;;;;;;3.92;2.20;;;19.80;90.10;;;;;;5098042;28;20043;-80
2023/08/30 03:16:16;;;;;;;4.32;2.60;;;19.70;90.10;;;;;;5098306;28;20050;-79
2023/08/30 03:18:43;;;;;;;4.30;2.35;;;19.80;90.10;;;;;;5079744;28;20028;-80
2023/08/30 03:21:09;;;;;;;4.22;2.40;;;19.70;90.10;;;;;;5097679;28;20519;-81
2023/08/30 03:23:35;;;;;;;3.95;2.50;;;19.70;90.10;;;;;;5080876;28;20028;-81
2023/08/30 03:26:12;;;;;;;3.70;2.30;;;19.70;90.10;;;;;;5080833;28;20035;-80
2023/08/30 03:28:38;;;;;;;3.25;2.17;;;19.80;90.10;;;;;;5075449;28;20042;-81
2023/08/30 03:31:12;;;;;;;2.97;2.10;;;19.70;90.10;;;;;;5071392;28;20111;-81
2023/08/30 03:33:37;;;;;;;3.90;2.30;;;19.70;90.10;;;;;;5073870;28;20028;-82
2023/08/30 03:36:03;;;;;;;3.55;2.03;;;19.70;90.10;;;;;;5092540;28;20035;-81
2023/08/30 03:38:29;;;;;;;3.42;2.20;;;19.80;90.10;;;;;;5074037;28;20028;-82
2023/08/30 03:40:54;;;;;;;3.85;2.35;;;19.80;90.10;;;;;;5074210;28;20020;-83
2023/08/30 03:43:20;;;;;;;3.85;2.50;;;19.80;90.10;;;;;;5092730;28;20066;-80
2023/08/30 03:45:46;;;;;;;3.45;2.10;;;19.80;90.00;;;;;;5073510;28;20461;-79
2023/08/30 03:48:11;;;;;;;3.67;2.30;;;19.80;90.00;;;;;;5092052;28;20024;-81
2023/08/30 03:50:37;;;;;;;4.28;2.47;;;19.80;90.00;;;;;;5079577;28;20029;-80
2023/08/30 03:53:02;;;;;;;3.78;2.30;;;19.70;89.90;;;;;;5071537;28;20052;-80
2023/08/30 03:55:28;;;;;;;4.15;2.40;;;19.80;90.00;;;;;;5073481;28;20033;-82
2023/08/30 03:57:53;;;;;;;3.78;2.40;;;19.80;90.00;;;;;;5057479;28;20078;-79
2023/08/30 04:00:19;;;;;;;3.63;2.40;;;19.80;90.00;;;;;;5075602;28;20875;-81
2023/08/30 04:02:45;;;;;;;4.25;2.35;;;19.80;90.00;;;;;;5057229;28;20101;-80
2023/08/30 04:05:10;;;;;;;4.18;2.78;;;19.80;90.00;;;;;;5057401;28;20025;-80
2023/08/30 04:07:36;;;;;;;4.22;2.45;;;19.60;90.00;;;;;;5075176;28;20025;-80
2023/08/30 04:10:06;;;;;;;3.60;2.42;;;19.70;90.10;;;;;;5075157;28;20032;-85
2023/08/30 04:12:31;;;;;;;4.10;2.70;;;19.70;90.10;;;;;;5057020;28;20035;-84
2023/08/30 04:14:57;;;;;;;4.03;2.50;;;19.70;90.10;;;;;;5056320;28;20021;-80
2023/08/30 04:17:22;;;;;;;3.83;2.50;;;19.70;90.20;;;;;;5056712;28;20028;-81
2023/08/30 04:19:51;;;;;;;5.50;2.90;;;19.70;90.10;;;;;;5073906;28;20086;-82
2023/08/30 04:22:17;;;;;;;4.43;2.72;;;19.70;90.10;;;;;;5055807;28;20111;-81
2023/08/30 04:24:42;;;;;;;4.32;2.72;;;19.70;90.10;;;;;;5055655;28;20115;-81
2023/08/30 04:27:08;;;;;;;3.75;2.63;;;19.70;90.20;;;;;;5055821;28;20028;-82
2023/08/30 04:29:33;;;;;;;4.10;2.42;;;19.70;90.20;;;;;;5073561;28;20047;-80
2023/08/30 04:31:59;;;;;;;3.97;2.45;;;19.70;90.10;;;;;;5055746;28;20384;-80
2023/08/30 04:34:24;;;;;;;3.97;2.55;;;19.70;90.10;;;;;;5073157;28;20115;-80
2023/08/30 04:36:50;;;;;;;4.78;2.60;;;19.70;90.20;;;;;;5073050;28;20029;-81
2023/08/30 04:39:15;;;;;;;3.70;2.42;;;19.70;90.20;;;;;;5054408;28;20025;-81
2023/08/30 04:41:41;;;;;;;4.63;2.65;;;19.70;90.10;;;;;;5053024;28;20044;-82
2023/08/30 04:44:06;;;;;;;4.57;2.40;;;19.80;90.10;;;;;;5071385;28;20025;-84
2023/08/30 04:46:32;;;;;;;4.18;2.53;;;19.70;90.10;;;;;;5052068;28;20024;-81
2023/08/30 04:48:57;;;;;;;4.63;2.50;;;19.60;90.00;;;;;;5071508;28;20412;-80
2023/08/30 04:51:23;;;;;;;3.83;2.60;;;19.80;90.20;;;;;;5070963;28;20107;-80
2023/08/30 04:53:48;;;;;;;4.93;2.85;;;19.80;90.00;;;;;;5070389;28;20035;-81
2023/08/30 04:56:15;;;;;;;4.30;2.75;;;19.80;90.00;;;;;;5073867;28;20111;-80
2023/08/30 04:58:40;;;;;;;3.47;2.50;;;19.70;89.90;;;;;;5085656;28;20063;-82
2023/08/30 05:01:06;;;;;;;4.25;2.90;;;19.70;90.00;;;;;;5090850;28;20499;-79
2023/08/30 05:03:32;;;;;;;4.45;2.90;;;19.70;90.00;;;;;;5072359;28;20020;-81
2023/08/30 05:05:58;;;;;;;4.82;2.80;;;19.70;90.00;;;;;;5066580;28;20040;-79
2023/08/30 05:08:23;;;;;;;4.90;2.90;;;19.80;90.10;;;;;;5065647;28;20419;-81
2023/08/30 05:10:49;;;;;;;4.90;3.10;;;19.70;90.10;;;;;;5072090;28;20020;-79
2023/08/30 05:13:16;;;;;;;4.45;2.90;;;19.70;90.10;;;;;;5070904;28;20032;-81
2023/08/30 05:15:41;;;;;;;4.38;2.97;;;19.70;90.10;;;;;;5071465;28;20504;-80
2023/08/30 05:18:07;;;;;;;4.25;2.80;;;19.70;90.10;;;;;;5071647;28;20024;-81
2023/08/30 05:20:32;;;;;;;3.85;2.63;;;19.70;90.20;;;;;;5070273;28;20021;-82
2023/08/30 05:22:58;;;;;;;4.32;2.85;;;19.70;90.10;;;;;;5071699;28;20036;-79
2023/08/30 05:25:24;;;;;;;5.25;2.85;;;19.70;90.20;;;;;;5053412;28;20114;-80
2023/08/30 05:27:49;;;;;;;4.20;2.33;;;19.70;90.20;;;;;;5071676;28;20106;-82
2023/08/30 05:30:16;;;;;;;4.32;2.80;;;19.60;90.10;;;;;;5071233;28;20050;-81
2023/08/30 05:32:41;;;;;;;4.22;2.70;;;19.60;90.10;;;;;;5069980;28;20399;-80
2023/08/30 05:35:07;;;;;;;4.35;2.80;;;19.70;90.20;;;;;;5080077;28;20107;-79
2023/08/30 05:37:33;;;;;;;3.92;2.55;;;19.70;90.20;;;;;;5072914;28;20024;-80
2023/08/30 05:39:58;;;;;;;4.90;2.85;;;19.70;90.20;;;;;;5072947;28;20039;-80
2023/08/30 05:42:23;;;;;;;4.20;2.85;;;19.70;90.10;;;;;;5072976;28;20380;-81
2023/08/30 05:44:49;;;;;;;4.68;2.95;;;19.70;90.10;;;;;;5091043;28;20024;-81
2023/08/30 05:47:16;;;;;;;4.03;2.67;;;19.70;90.10;;;;;;5072938;28;20032;-79
2023/08/30 05:49:42;;;;;;;4.90;3.15;;;19.70;90.00;;;;;;5073158;28;20500;-79
2023/08/30 05:52:08;;;;;;;5.63;3.05;;;19.70;89.90;;;;;;5090976;28;20040;-79
2023/08/30 05:54:33;;;;;;;4.75;3.17;;;19.70;89.90;;;;;;5072474;28;20645;-80
2023/08/30 05:56:59;;;;;;;5.45;3.40;;;19.70;89.90;;;;;;5072192;28;20081;-79
2023/08/30 05:59:31;;;;;;;5.38;3.40;;;19.70;89.80;;;;;;5073761;28;20032;-79
2023/08/30 06:01:57;;;;;;;4.85;3.10;;;19.70;89.90;;;;;;5076722;28;20016;-80
2023/08/30 06:04:22;;;;;;;6.10;3.20;;;19.70;89.90;;;;;;5075660;28;20062;-80
2023/08/30 06:06:48;;;;;;;5.40;3.22;;;19.70;90.00;;;;;;5093073;28;20027;-81
2023/08/30 06:09:13;;;;;;;5.15;3.22;;;19.70;90.00;;;;;;5092019;28;20081;-81
2023/08/30 06:11:39;;;;;;;5.28;3.47;;;19.70;90.00;;;;;;5091842;28;20484;-80
2023/08/30 06:14:05;;;;;;;5.70;3.58;;;19.70;90.00;;;;;;5091353;28;20433;-81
2023/08/30 06:16:30;;;;;;;7.03;3.70;;;19.70;90.00;;;;;;5091398;28;20032;-80
2023/08/30 06:18:58;;;;;;;5.50;3.58;;;19.70;90.00;;;;;;5072513;28;20495;-81
2023/08/30 06:21:23;;;;;;;5.35;3.47;;;19.70;90.00;;;;;;5073279;28;20024;-80
2023/08/30 06:23:50;;;;;;;5.82;3.63;;;19.70;90.00;;;;;;5074722;28;20524;-81
2023/08/30 06:26:15;;;;;;;6.05;3.50;;;19.70;90.00;;;;;;5093243;28;20039;-80
2023/08/30 06:28:42;;;;;;;5.47;3.38;;;19.70;90.00;;;;;;5075000;28;20052;-80
2023/08/30 06:31:08;;;;;;;5.22;3.20;;;19.70;90.00;;;;;;5097704;28;20024;-82
2023/08/30 06:33:33;;;;;;;5.07;3.38;;;19.80;90.00;;;;;;5097626;28;20280;-80
2023/08/30 06:35:59;;;;;;;5.63;3.47;;;19.70;89.80;;;;;;5098154;28;20038;-81
2023/08/30 06:38:24;;;;;;;5.25;3.42;;;19.80;89.70;;;;;;5079889;28;20033;-82
2023/08/30 06:40:50;;;;;;;5.15;3.35;;;19.80;89.70;;;;;;5078919;28;20036;-80
2023/08/30 06:43:15;;;;;;;5.65;3.65;;;19.70;89.50;;;;;;5079713;28;20487;-81
2023/08/30 06:45:42;;;;;;;5.10;3.42;;;19.80;89.50;;;;;;5097393;28;20380;-82
2023/08/30 06:48:08;;;;;;;4.97;3.17;;;19.80;89.40;;;;;;5078813;28;20024;-81
2023/08/30 06:50:34;;;;;;;5.88;3.83;;;19.80;89.40;;;;;;5096948;28;20028;-81
2023/08/30 06:53:00;;;;;;;7.18;3.65;;;19.80;89.30;;;;;;5078953;28;20028;-81
2023/08/30 06:55:26;;;;;;;5.60;3.65;;;19.80;89.50;;;;;;5094924;28;20224;-81
2023/08/30 06:57:51;;;;;;;6.47;3.60;;;19.80;89.40;;;;;;5097083;28;20046;-82
2023/08/30 07:00:17;;;;;;;6.47;3.65;;;19.80;89.50;;;;;;5095686;28;20058;-80
2023/08/30 07:02:45;;;;;;;5.60;3.25;;;19.80;89.50;;;;;;5079108;28;20423;-81
2023/08/30 07:05:11;;;;;;;5.93;3.83;;;19.80;89.70;;;;;;5096628;28;20020;-82
2023/08/30 07:07:37;;;;;;;4.97;3.15;;;19.80;89.70;;;;;;5078939;28;20028;-81
2023/08/30 07:10:02;;;;;;;5.40;3.53;;;19.80;89.70;;;;;;5078726;28;20578;-80
2023/08/30 07:12:28;;;;;;;5.90;3.92;;;19.80;89.70;;;;;;5078858;28;20055;-80
2023/08/30 07:14:54;;;;;;;6.00;3.80;;;19.80;89.70;;;;;;5077932;28;20165;-81
2023/08/30 07:17:20;;;;;;;5.15;3.45;;;19.80;89.70;;;;;;5078650;28;20066;-81
2023/08/30 07:19:45;;;;;;;6.63;3.80;;;19.80;89.60;;;;;;5077903;28;20028;-81
2023/08/30 07:22:11;;;;;;;5.38;3.30;;;19.80;89.60;;;;;;5096183;28;20031;-82
2023/08/30 07:24:36;;;;;;;5.43;3.50;;;19.80;89.60;;;;;;5095477;28;20023;-82
2023/08/30 07:27:02;;;;;;;5.57;3.53;;;19.80;89.50;;;;;;5077650;28;20074;-81
2023/08/30 07:29:28;;;;;;;5.82;3.80;;;19.80;89.60;;;;;;5095390;28;20028;-81
2023/08/30 07:31:54;;;;;;;5.25;3.35;;;19.90;89.50;;;;;;5077176;28;20024;-81
2023/08/30 07:34:20;;;;;;;5.53;3.67;;;19.90;89.90;;;;;;5095720;28;20046;-81
2023/08/30 07:36:46;;;;;;;5.43;3.50;;;19.90;89.20;;;;;;5085972;28;20492;-81
2023/08/30 07:39:12;;;;;;;5.40;3.35;;;20.00;89.10;;;;;;5056778;28;20106;-81
2023/08/30 07:41:37;;;;;;;5.07;3.45;;;20.00;88.90;;;;;;5074783;28;20036;-81
2023/08/30 07:44:03;;;;;;;7.38;3.90;;;20.00;88.80;;;;;;5056341;28;20024;-81
2023/08/30 07:46:29;;;;;;;5.68;3.50;;;20.00;88.70;;;;;;5074299;28;20489;-80
2023/08/30 07:48:55;;;;;;;7.15;3.80;;;20.00;88.70;;;;;;5056143;28;20024;-81
2023/08/30 07:51:21;;;;;;;5.45;3.40;;;20.00;88.60;;;;;;5056282;28;20028;-80
2023/08/30 07:53:46;;;;;;;5.40;3.60;;;20.00;88.70;;;;;;5055939;28;20030;-81
2023/08/30 07:56:12;;;;;;;6.05;3.55;;;20.00;88.70;;;;;;5055835;28;20028;-80
2023/08/30 07:58:37;;;;;;;5.53;3.88;;;20.10;88.70;;;;;;5056146;28;20035;-81
2023/08/30 08:01:03;;;;;;;6.03;3.63;;;20.00;88.70;;;;;;5073610;28;20021;-81
2023/08/30 08:03:29;;;;;;;5.43;3.90;;;20.00;88.60;;;;;;5055749;28;20535;-81
2023/08/30 08:05:54;;;;;;;5.50;3.72;;;20.10;88.70;;;;;;5055086;28;20016;-81
2023/08/30 08:08:20;;;;;;;6.32;3.78;;;20.10;88.60;;;;;;5073496;28;20033;-81
2023/08/30 08:10:45;;;;;;;5.72;3.72;;;20.10;88.60;;;;;;5073473;28;20621;-80
2023/08/30 08:13:12;;;;;;;5.50;3.80;;;20.10;88.60;;;;;;5055786;28;20029;-82
2023/08/30 08:15:38;;;;;;;6.07;3.95;;;20.10;88.50;;;;;;5054912;28;20028;-81
2023/08/30 08:18:04;;;;;;;5.70;3.60;;;20.10;88.50;;;;;;5072924;28;20412;-81
2023/08/30 08:20:30;;;;;;;5.75;3.92;;;20.10;88.40;;;;;;5073216;28;20032;-81
2023/08/30 08:22:56;;;;;;;5.65;3.95;;;20.20;88.40;;;;;;5072868;28;20047;-81
2023/08/30 08:25:23;;;;;;;6.00;4.10;;;20.20;88.40;;;;;;5054734;28;20477;-80
2023/08/30 08:27:50;;;;;;;5.68;3.97;;;20.20;88.40;;;;;;5054542;28;20020;-81
2023/08/30 08:30:16;;;;;;;5.70;3.78;;;20.20;88.30;;;;;;5054728;28;20025;-81
2023/08/30 08:32:41;;;;;;;5.63;3.47;;;20.30;88.20;;;;;;5072520;28;20059;-82
2023/08/30 08:35:07;;;;;;;5.35;3.70;;;20.30;88.10;;;;;;5054205;28;20021;-81
2023/08/30 08:37:33;;;;;;;5.90;3.92;;;20.30;88.00;;;;;;5054569;28;20024;-81
2023/08/30 08:39:58;;;;;;;5.15;3.50;;;20.40;88.00;;;;;;5054477;28;20074;-80
2023/08/30 08:42:24;;;;;;;5.30;3.72;;;20.40;87.80;;;;;;5057651;28;20074;-81
2023/08/30 08:44:54;;;;;;;6.65;3.88;;;20.40;87.70;;;;;;5075779;28;20640;-80
2023/08/30 08:47:21;;;;;;;6.68;3.95;;;20.40;87.60;;;;;;5075870;28;20028;-80
2023/08/30 08:49:50;;;;;;;5.68;3.75;;;20.40;87.60;;;;;;5057593;28;20028;-81
2023/08/30 08:52:16;;;;;;;5.88;3.88;;;20.40;87.60;;;;;;5075889;28;20078;-80
2023/08/30 08:54:43;;;;;;;5.93;3.78;;;20.40;87.60;;;;;;5057124;28;20025;-81
2023/08/30 08:57:09;;;;;;;7.05;4.07;;;20.40;87.60;;;;;;5075255;28;20115;-81
2023/08/30 08:59:35;;;;;;;6.15;3.83;;;20.40;87.60;;;;;;5057396;28;20028;-81
2023/08/30 09:02:01;;;;;;;6.38;4.00;;;20.50;87.60;;;;;;5056865;28;20024;-81
2023/08/30 09:04:30;;;;;;;5.63;3.83;;;20.50;87.50;;;;;;5057053;28;20113;-81
2023/08/30 09:06:57;;;;;;;5.95;3.90;;;20.50;87.50;;;;;;5056817;28;20021;-81
2023/08/30 09:09:23;;;;;;;5.75;3.72;;;20.50;87.40;;;;;;5075054;28;20025;-81
2023/08/30 09:11:49;;;;;;;6.63;4.05;;;20.50;87.40;;;;;;5056476;28;20032;-81
2023/08/30 09:14:14;;;;;;;5.60;3.88;;;20.50;87.80;;;;;;5056575;28;20388;-82
2023/08/30 09:16:40;;;;;;;5.97;4.03;;;20.60;87.30;;;;;;5056559;28;20024;-81
2023/08/30 09:19:07;;;;;;;6.25;4.00;;;20.60;87.30;;;;;;5074813;28;20035;-81
2023/08/30 09:21:32;;;;;;;5.88;3.90;;;20.60;87.20;;;;;;5074572;28;20095;-81
2023/08/30 09:24:03;;;;;;;6.53;3.90;;;20.60;87.20;;;;;;5074122;28;20105;-80
2023/08/30 09:26:31;;;;;;;5.30;3.80;;;20.60;87.30;;;;;;5056461;28;20476;-80
2023/08/30 09:29:03;;;;;;;5.55;3.75;;;20.60;87.20;;;;;;5056200;28;20060;-80
2023/08/30 09:31:33;;;;;;;6.03;3.95;;;20.60;87.20;;;;;;5074563;28;20477;-80
2023/08/30 09:33:59;;;;;;;5.97;3.87;;;20.60;87.10;;;;;;5074006;28;20035;-80
2023/08/30 09:36:24;;;;;;;6.22;3.80;;;20.70;87.00;;;;;;5074143;28;20459;-81
2023/08/30 09:38:50;;;;;;;6.20;4.00;;;20.70;87.10;;;;;;5073764;28;20028;-80
2023/08/30 09:41:16;;;;;;;5.85;3.70;;;20.60;87.10;;;;;;5056363;28;20070;-81
2023/08/30 09:43:45;;;;;;;6.38;4.30;;;20.60;87.10;;;;;;5073978;28;20385;-80
2023/08/30 09:46:11;;;;;;;5.43;3.88;;;20.60;87.30;;;;;;5055872;28;20166;-81
2023/08/30 09:48:38;;;;;;;6.53;4.25;;;20.60;87.50;;;;;;5055855;28;20021;-81
2023/08/30 09:51:08;;;;;;;5.78;3.72;;;20.50;87.60;;;;;;5055841;28;20378;-80
2023/08/30 09:53:40;;;;;;;5.65;4.03;;;20.50;87.80;;;;;;5054753;28;20177;-79
2023/08/30 09:56:09;;;;;;;5.80;4.00;;;20.40;87.90;;;;;;5073676;28;20033;-80
2023/08/30 09:58:35;;;;;;;5.78;3.80;;;20.40;88.00;;;;;;5073620;28;20386;-80
2023/08/30 10:01:02;;;;;;;5.82;3.88;;;20.40;88.10;;;;;;5055717;28;20519;-80
2023/08/30 10:03:30;;;;;;;5.75;3.88;;;20.40;88.10;;;;;;5076497;28;20063;-80
2023/08/30 10:05:56;;;;;;;7.22;4.00;;;20.40;88.20;;;;;;5061284;28;20017;-82
2023/08/30 10:08:23;;;;;;;5.63;3.80;;;20.30;88.20;;;;;;5078533;28;20039;-81
2023/08/30 10:10:50;;;;;;;5.55;3.55;;;20.30;88.30;;;;;;5060492;28;20027;-81
2023/08/30 10:13:17;;;;;;;6.15;3.92;;;20.30;88.30;;;;;;5060336;28;20028;-81
2023/08/30 10:15:48;;;;;;;5.60;3.65;;;20.30;88.40;;;;;;5077610;28;20021;-81
2023/08/30 10:18:19;;;;;;;5.95;3.90;;;20.30;88.50;;;;;;5077987;28;20422;-81
2023/08/30 10:20:45;;;;;;;5.53;3.73;;;20.30;88.50;;;;;;5059459;28;20036;-81
2023/08/30 10:23:11;;;;;;;6.35;4.20;;;20.30;88.50;;;;;;5077181;28;20341;-81
2023/08/30 10:25:38;;;;;;;5.65;3.95;;;20.30;88.60;;;;;;5077830;28;20025;-81
2023/08/30 10:28:04;;;;;;;6.10;3.85;;;20.30;88.60;;;;;;5078608;28;20392;-81
2023/08/30 10:30:30;;;;;;;5.63;3.72;;;20.30;88.50;;;;;;5077817;28;20439;-82
2023/08/30 10:32:55;;;;;;;6.00;3.95;;;20.30;88.50;;;;;;5059945;28;20455;-81
2023/08/30 10:35:21;;;;;;;5.05;3.35;;;20.30;88.40;;;;;;5077195;28;20067;-81
2023/08/30 10:37:59;;;;;;;6.18;4.10;;;20.30;88.30;;;;;;5059832;28;20227;-81
2023/08/30 10:40:25;;;;;;;6.38;4.00;;;20.30;88.30;;;;;;5077758;28;20038;-81
2023/08/30 10:43:04;;;;;;;5.72;3.58;;;20.30;88.40;;;;;;5077051;28;20054;-80
2023/08/30 10:45:30;;;;;;;6.28;3.92;;;20.30;88.30;;;;;;5076682;28;20716;-81
2023/08/30 10:47:58;;;;;;;6.13;3.65;;;20.30;88.50;;;;;;5058505;28;20088;-81
2023/08/30 10:50:31;;;;;;;5.45;3.50;;;20.30;88.50;;;;;;5058858;28;20026;-81
2023/08/30 10:52:57;;;;;;;6.05;3.72;;;20.30;88.50;;;;;;5058330;28;20041;-83
2023/08/30 10:55:23;;;;;;;6.82;3.45;;;20.20;88.60;;;;;;5076273;28;20459;-81
2023/08/30 10:58:00;;;;;;;5.68;3.60;;;20.20;88.80;;;;;;5057642;28;20062;-81
2023/08/30 11:00:31;;;;;;;5.88;3.80;;;20.20;88.80;;;;;;5057885;28;20035;-81
2023/08/30 11:02:57;;;;;;;5.60;3.50;;;20.20;88.80;;;;;;5058029;28;20020;-81
2023/08/30 11:05:24;;;;;;;6.78;3.72;;;20.20;88.90;;;;;;5056853;28;20273;-81
2023/08/30 11:07:51;;;;;;;5.50;3.30;;;20.20;89.00;;;;;;5057662;28;20031;-80
2023/08/30 11:10:18;;;;;;;5.13;3.25;;;20.10;88.90;;;;;;5057087;28;20082;-80
2023/08/30 11:12:45;;;;;;;4.80;3.10;;;20.10;89.00;;;;;;5057359;28;20399;-81
2023/08/30 11:15:14;;;;;;;5.43;3.53;;;20.10;89.00;;;;;;5056569;28;20179;-82
2023/08/30 11:17:42;;;;;;;5.28;3.28;;;20.10;89.00;;;;;;5056514;28;20390;-81
2023/08/30 11:20:09;;;;;;;5.85;3.50;;;20.10;89.10;;;;;;5074889;28;20032;-82
2023/08/30 11:22:40;;;;;;;5.30;3.30;;;20.10;89.20;;;;;;5074973;28;20165;-81
2023/08/30 11:25:07;;;;;;;5.67;3.60;;;20.10;89.10;;;;;;5075079;28;20024;-80
2023/08/30 11:27:33;;;;;;;5.07;3.17;;;20.10;89.10;;;;;;5056064;28;20481;-81
2023/08/30 11:30:05;;;;;;;5.40;3.30;;;20.10;89.00;;;;;;5074629;28;20035;-81
2023/08/30 11:32:38;;;;;;;6.00;3.50;;;20.10;88.90;;;;;;5074280;28;20028;-81
2023/08/30 11:35:05;;;;;;;5.63;3.45;;;20.20;88.80;;;;;;5055372;28;20056;-80
2023/08/30 11:37:31;;;;;;;5.18;3.33;;;20.20;88.70;;;;;;5073933;28;20024;-81
2023/08/30 11:39:57;;;;;;;5.07;3.17;;;20.10;88.70;;;;;;5055665;28;20024;-80
2023/08/30 11:42:23;;;;;;;6.28;3.60;;;20.20;88.70;;;;;;5055645;28;20028;-81
2023/08/30 11:44:50;;;;;;;5.13;3.15;;;20.10;88.60;;;;;;5073588;28;20020;-81
2023/08/30 11:47:24;;;;;;;4.85;3.10;;;20.10;88.60;;;;;;5073673;28;20036;-81
2023/08/30 11:49:53;;;;;;;5.00;3.00;;;20.10;88.60;;;;;;5055380;28;20427;-80
2023/08/30 11:52:19;;;;;;;5.45;3.22;;;20.10;88.60;;;;;;5055076;28;20434;-81
2023/08/30 11:54:47;;;;;;;5.38;3.33;;;20.10;88.70;;;;;;5073058;28;20028;-80
2023/08/30 11:57:13;;;;;;;6.05;3.65;;;20.10;88.90;;;;;;5054729;28;20447;-81
2023/08/30 11:59:39;;;;;;;5.85;3.10;;;20.10;88.90;;;;;;5086957;28;20083;-81
2023/08/30 12:02:06;;;;;;;5.10;3.25;;;20.10;88.80;;;;;;5093149;28;20026;-81
2023/08/30 12:04:31;;;;;;;5.18;2.83;;;20.10;88.90;;;;;;5092964;28;20451;-80
2023/08/30 12:06:58;;;;;;;5.18;3.30;;;20.10;89.00;;;;;;5074057;28;20119;-81
2023/08/30 12:09:30;;;;;;;5.82;3.30;;;20.10;88.90;;;;;;5092914;28;20144;-81
2023/08/30 12:12:11;;;;;;;5.05;3.20;;;20.10;88.90;;;;;;5093089;28;20028;-81
2023/08/30 12:14:37;;;;;;;5.32;3.40;;;20.00;89.00;;;;;;5092644;28;20499;-81
2023/08/30 12:17:04;;;;;;;5.57;3.30;;;20.00;88.90;;;;;;5095949;28;20028;-81
2023/08/30 12:19:30;;;;;;;5.28;3.22;;;20.00;89.00;;;;;;5096662;28;20118;-81
2023/08/30 12:21:56;;;;;;;5.53;3.17;;;20.00;89.00;;;;;;5078225;28;20020;-81
2023/08/30 12:24:22;;;;;;;5.22;3.17;;;20.00;89.00;;;;;;5077974;28;20023;-81
2023/08/30 12:26:48;;;;;;;5.03;2.90;;;20.00;89.00;;;;;;5096541;28;20016;-80
2023/08/30 12:29:13;;;;;;;4.95;2.90;;;20.10;88.90;;;;;;5096429;28;20540;-81
2023/08/30 12:31:39;;;;;;;5.25;3.25;;;20.10;88.80;;;;;;5096315;28;20024;-81
2023/08/30 12:34:04;;;;;;;5.30;3.10;;;20.10;88.70;;;;;;5095776;28;20028;-80
2023/08/30 12:36:31;;;;;;;5.90;3.13;;;20.10;88.70;;;;;;5077642;28;20028;-81
2023/08/30 12:38:57;;;;;;;5.13;3.10;;;20.10;88.80;;;;;;5077731;28;20128;-81
2023/08/30 12:41:23;;;;;;;5.32;3.13;;;20.10;88.90;;;;;;5095747;28;20483;-81
2023/08/30 12:43:50;;;;;;;5.00;2.95;;;20.00;88.90;;;;;;5077495;28;20403;-81
2023/08/30 12:46:15;;;;;;;5.15;2.80;;;20.00;88.90;;;;;;5077616;28;20201;-81